Marion, Mississippi
Current Conditions -  °F | °C
As of 10:58 PM on Saturday 22 Nov 2014 (Local Time) from KMEI Reporting Station
Overcast Overcast  
Wind Chill: 60°   Ceiling: 900
Heat Index: 60°   Visibility: 10mi
Dew Point: 57°   Wind: 7mph
Humidity: 90%   Direction: 110°ESE
Pressure: 30.01"   Gusts: NA
Location:  32.42°N, 88.65°W
Report Text: KMEI 230458Z AUTO 11006KT 10SM OVC009 16/14 A3001 RMK AO2 SLP160 T01560139
Loading
Personal Weather Stations






























Interactive Weather Map New forecast layout! Learn more

10-Day Weather Forecast

Advertisements
Track Severe Weather on mobile